sensor_id;sensor_type;location;lat;lon;timestamp;P1;durP1;ratioP1;P2;durP2;ratioP2
39442;SDS011;25147;52.142;9.960;2023-07-16T00:04:36;3.90;;;3.38;;
39442;SDS011;25147;52.142;9.960;2023-07-16T00:07:04;3.95;;;3.60;;
39442;SDS011;25147;52.142;9.960;2023-07-16T00:09:32;3.63;;;3.22;;
39442;SDS011;25147;52.142;9.960;2023-07-16T00:12:02;3.97;;;3.58;;
39442;SDS011;25147;52.142;9.960;2023-07-16T00:14:29;3.50;;;3.20;;
39442;SDS011;25147;52.142;9.960;2023-07-16T00:17:00;3.65;;;3.35;;
39442;SDS011;25147;52.142;9.960;2023-07-16T00:19:32;3.78;;;3.03;;
39442;SDS011;25147;52.142;9.960;2023-07-16T00:22:02;3.75;;;3.40;;
39442;SDS011;25147;52.142;9.960;2023-07-16T00:24:33;3.72;;;3.42;;
39442;SDS011;25147;52.142;9.960;2023-07-16T00:27:07;3.83;;;3.35;;
39442;SDS011;25147;52.142;9.960;2023-07-16T00:30:15;5.13;;;3.58;;
39442;SDS011;25147;52.142;9.960;2023-07-16T00:33:01;3.95;;;3.22;;
39442;SDS011;25147;52.142;9.960;2023-07-16T00:35:28;4.43;;;3.90;;
39442;SDS011;25147;52.142;9.960;2023-07-16T00:37:57;3.70;;;3.40;;
39442;SDS011;25147;52.142;9.960;2023-07-16T00:40:38;4.15;;;3.50;;
39442;SDS011;25147;52.142;9.960;2023-07-16T00:43:29;4.32;;;3.70;;
39442;SDS011;25147;52.142;9.960;2023-07-16T00:46:14;4.60;;;3.60;;
39442;SDS011;25147;52.142;9.960;2023-07-16T00:48:50;3.80;;;3.50;;
39442;SDS011;25147;52.142;9.960;2023-07-16T00:51:36;3.83;;;3.53;;
39442;SDS011;25147;52.142;9.960;2023-07-16T00:54:06;4.35;;;3.95;;
39442;SDS011;25147;52.142;9.960;2023-07-16T00:56:33;5.32;;;3.72;;
39442;SDS011;25147;52.142;9.960;2023-07-16T00:59:05;4.45;;;3.83;;
39442;SDS011;25147;52.142;9.960;2023-07-16T01:01:43;4.28;;;3.97;;
39442;SDS011;25147;52.142;9.960;2023-07-16T01:04:10;4.40;;;3.45;;
39442;SDS011;25147;52.142;9.960;2023-07-16T01:06:38;4.20;;;3.80;;
39442;SDS011;25147;52.142;9.960;2023-07-16T01:09:14;3.88;;;3.58;;
39442;SDS011;25147;52.142;9.960;2023-07-16T01:11:43;5.88;;;3.80;;
39442;SDS011;25147;52.142;9.960;2023-07-16T01:14:20;3.95;;;3.20;;
39442;SDS011;25147;52.142;9.960;2023-07-16T01:17:02;4.78;;;3.88;;
39442;SDS011;25147;52.142;9.960;2023-07-16T01:19:50;7.63;;;3.95;;
39442;SDS011;25147;52.142;9.960;2023-07-16T01:23:03;4.50;;;4.10;;
39442;SDS011;25147;52.142;9.960;2023-07-16T01:26:11;4.22;;;3.90;;
39442;SDS011;25147;52.142;9.960;2023-07-16T01:32:04;4.80;;;3.88;;
39442;SDS011;25147;52.142;9.960;2023-07-16T01:34:47;4.30;;;3.90;;
39442;SDS011;25147;52.142;9.960;2023-07-16T01:37:52;4.10;;;3.70;;
39442;SDS011;25147;52.142;9.960;2023-07-16T01:43:59;4.53;;;4.00;;
39442;SDS011;25147;52.142;9.960;2023-07-16T01:46:27;4.45;;;3.95;;
39442;SDS011;25147;52.142;9.960;2023-07-16T01:48:54;4.43;;;3.05;;
39442;SDS011;25147;52.142;9.960;2023-07-16T01:51:30;3.10;;;2.40;;
39442;SDS011;25147;52.142;9.960;2023-07-16T01:54:00;1.98;;;1.85;;
39442;SDS011;25147;52.142;9.960;2023-07-16T01:56:27;2.20;;;1.90;;
39442;SDS011;25147;52.142;9.960;2023-07-16T01:58:54;2.50;;;1.83;;
39442;SDS011;25147;52.142;9.960;2023-07-16T02:01:21;5.53;;;2.40;;
39442;SDS011;25147;52.142;9.960;2023-07-16T02:03:49;5.38;;;2.90;;
39442;SDS011;25147;52.142;9.960;2023-07-16T02:06:16;3.90;;;2.50;;
39442;SDS011;25147;52.142;9.960;2023-07-16T02:08:43;5.28;;;2.40;;
39442;SDS011;25147;52.142;9.960;2023-07-16T02:11:10;3.33;;;2.70;;
39442;SDS011;25147;52.142;9.960;2023-07-16T02:13:37;3.30;;;3.00;;
39442;SDS011;25147;52.142;9.960;2023-07-16T02:16:04;3.75;;;2.88;;
39442;SDS011;25147;52.142;9.960;2023-07-16T02:18:31;4.72;;;2.58;;
39442;SDS011;25147;52.142;9.960;2023-07-16T02:20:59;5.72;;;3.17;;
39442;SDS011;25147;52.142;9.960;2023-07-16T02:23:27;4.25;;;3.25;;
39442;SDS011;25147;52.142;9.960;2023-07-16T02:25:54;5.25;;;3.03;;
39442;SDS011;25147;52.142;9.960;2023-07-16T02:28:20;6.05;;;3.00;;
39442;SDS011;25147;52.142;9.960;2023-07-16T02:30:48;6.10;;;3.55;;
39442;SDS011;25147;52.142;9.960;2023-07-16T02:33:15;4.10;;;3.20;;
39442;SDS011;25147;52.142;9.960;2023-07-16T02:35:45;3.90;;;3.60;;
39442;SDS011;25147;52.142;9.960;2023-07-16T02:38:14;4.00;;;3.60;;
39442;SDS011;25147;52.142;9.960;2023-07-16T02:40:42;6.88;;;3.80;;
39442;SDS011;25147;52.142;9.960;2023-07-16T02:43:09;6.30;;;4.25;;
39442;SDS011;25147;52.142;9.960;2023-07-16T02:45:36;5.43;;;4.00;;
39442;SDS011;25147;52.142;9.960;2023-07-16T02:48:04;5.78;;;3.90;;
39442;SDS011;25147;52.142;9.960;2023-07-16T02:50:33;5.15;;;4.30;;
39442;SDS011;25147;52.142;9.960;2023-07-16T02:53:00;4.65;;;3.95;;
39442;SDS011;25147;52.142;9.960;2023-07-16T02:55:28;6.18;;;3.75;;
39442;SDS011;25147;52.142;9.960;2023-07-16T02:57:55;7.82;;;4.00;;
39442;SDS011;25147;52.142;9.960;2023-07-16T03:00:22;5.15;;;3.60;;
39442;SDS011;25147;52.142;9.960;2023-07-16T03:02:49;3.88;;;3.10;;
39442;SDS011;25147;52.142;9.960;2023-07-16T03:05:16;3.95;;;3.65;;
39442;SDS011;25147;52.142;9.960;2023-07-16T03:07:43;3.83;;;3.45;;
39442;SDS011;25147;52.142;9.960;2023-07-16T03:10:10;4.35;;;3.63;;
39442;SDS011;25147;52.142;9.960;2023-07-16T03:12:38;5.35;;;3.70;;
39442;SDS011;25147;52.142;9.960;2023-07-16T03:15:06;4.10;;;3.33;;
39442;SDS011;25147;52.142;9.960;2023-07-16T03:17:33;3.42;;;3.17;;
39442;SDS011;25147;52.142;9.960;2023-07-16T03:20:00;5.18;;;3.50;;
39442;SDS011;25147;52.142;9.960;2023-07-16T03:22:28;4.40;;;3.70;;
39442;SDS011;25147;52.142;9.960;2023-07-16T03:24:55;5.63;;;3.55;;
39442;SDS011;25147;52.142;9.960;2023-07-16T03:27:21;3.65;;;3.35;;
39442;SDS011;25147;52.142;9.960;2023-07-16T03:29:50;4.80;;;3.80;;
39442;SDS011;25147;52.142;9.960;2023-07-16T03:32:17;4.30;;;3.25;;
39442;SDS011;25147;52.142;9.960;2023-07-16T03:34:45;3.40;;;3.10;;
39442;SDS011;25147;52.142;9.960;2023-07-16T03:37:12;3.30;;;2.80;;
39442;SDS011;25147;52.142;9.960;2023-07-16T03:39:42;2.90;;;2.60;;
39442;SDS011;25147;52.142;9.960;2023-07-16T03:42:09;4.90;;;3.30;;
39442;SDS011;25147;52.142;9.960;2023-07-16T03:44:40;5.38;;;3.20;;
39442;SDS011;25147;52.142;9.960;2023-07-16T03:47:08;3.70;;;3.05;;
39442;SDS011;25147;52.142;9.960;2023-07-16T03:49:36;6.13;;;3.20;;
39442;SDS011;25147;52.142;9.960;2023-07-16T03:52:03;4.00;;;2.83;;
39442;SDS011;25147;52.142;9.960;2023-07-16T03:54:34;2.85;;;2.65;;
39442;SDS011;25147;52.142;9.960;2023-07-16T03:57:01;3.60;;;3.25;;
39442;SDS011;25147;52.142;9.960;2023-07-16T03:59:29;4.10;;;3.00;;
39442;SDS011;25147;52.142;9.960;2023-07-16T04:01:56;3.88;;;2.60;;
39442;SDS011;25147;52.142;9.960;2023-07-16T04:04:25;3.38;;;2.90;;
39442;SDS011;25147;52.142;9.960;2023-07-16T04:06:52;3.15;;;2.78;;
39442;SDS011;25147;52.142;9.960;2023-07-16T04:09:21;8.05;;;2.88;;
39442;SDS011;25147;52.142;9.960;2023-07-16T04:11:48;4.40;;;2.85;;
39442;SDS011;25147;52.142;9.960;2023-07-16T04:14:15;5.43;;;2.97;;
39442;SDS011;25147;52.142;9.960;2023-07-16T04:16:42;4.80;;;3.03;;
39442;SDS011;25147;52.142;9.960;2023-07-16T04:19:10;4.43;;;2.58;;
39442;SDS011;25147;52.142;9.960;2023-07-16T04:21:38;3.03;;;2.60;;
39442;SDS011;25147;52.142;9.960;2023-07-16T04:24:05;6.18;;;2.40;;
39442;SDS011;25147;52.142;9.960;2023-07-16T04:26:32;3.75;;;2.80;;
39442;SDS011;25147;52.142;9.960;2023-07-16T04:28:59;3.80;;;2.72;;
39442;SDS011;25147;52.142;9.960;2023-07-16T04:31:26;2.85;;;2.55;;
39442;SDS011;25147;52.142;9.960;2023-07-16T04:33:53;4.07;;;2.75;;
39442;SDS011;25147;52.142;9.960;2023-07-16T04:36:20;5.28;;;2.60;;
39442;SDS011;25147;52.142;9.960;2023-07-16T04:38:48;3.72;;;2.72;;
39442;SDS011;25147;52.142;9.960;2023-07-16T04:41:16;3.28;;;2.47;;
39442;SDS011;25147;52.142;9.960;2023-07-16T04:43:42;3.70;;;2.45;;
39442;SDS011;25147;52.142;9.960;2023-07-16T04:46:09;4.22;;;2.72;;
39442;SDS011;25147;52.142;9.960;2023-07-16T04:48:37;3.92;;;2.50;;
39442;SDS011;25147;52.142;9.960;2023-07-16T04:51:04;2.50;;;2.13;;
39442;SDS011;25147;52.142;9.960;2023-07-16T04:53:30;3.75;;;2.20;;
39442;SDS011;25147;52.142;9.960;2023-07-16T04:55:59;4.13;;;2.33;;
39442;SDS011;25147;52.142;9.960;2023-07-16T04:58:26;3.97;;;2.05;;
39442;SDS011;25147;52.142;9.960;2023-07-16T05:00:52;2.80;;;2.03;;
39442;SDS011;25147;52.142;9.960;2023-07-16T05:03:19;2.92;;;1.98;;
39442;SDS011;25147;52.142;9.960;2023-07-16T05:05:46;3.72;;;2.20;;
39442;SDS011;25147;52.142;9.960;2023-07-16T05:08:13;4.75;;;2.20;;
39442;SDS011;25147;52.142;9.960;2023-07-16T05:10:40;3.67;;;1.80;;
39442;SDS011;25147;52.142;9.960;2023-07-16T05:13:08;6.95;;;1.83;;
39442;SDS011;25147;52.142;9.960;2023-07-16T05:15:34;2.60;;;1.95;;
39442;SDS011;25147;52.142;9.960;2023-07-16T05:18:01;3.88;;;1.92;;
39442;SDS011;25147;52.142;9.960;2023-07-16T05:20:28;4.32;;;1.75;;
39442;SDS011;25147;52.142;9.960;2023-07-16T05:22:58;4.03;;;2.30;;
39442;SDS011;25147;52.142;9.960;2023-07-16T05:25:25;5.03;;;2.13;;
39442;SDS011;25147;52.142;9.960;2023-07-16T05:27:52;4.35;;;2.30;;
39442;SDS011;25147;52.142;9.960;2023-07-16T05:30:21;4.00;;;1.90;;
39442;SDS011;25147;52.142;9.960;2023-07-16T05:32:48;3.35;;;2.00;;
39442;SDS011;25147;52.142;9.960;2023-07-16T05:35:15;4.43;;;2.08;;
39442;SDS011;25147;52.142;9.960;2023-07-16T05:37:42;4.20;;;2.17;;
39442;SDS011;25147;52.142;9.960;2023-07-16T05:40:09;3.70;;;1.95;;
39442;SDS011;25147;52.142;9.960;2023-07-16T05:42:36;3.03;;;2.33;;
39442;SDS011;25147;52.142;9.960;2023-07-16T05:45:03;3.05;;;2.05;;
39442;SDS011;25147;52.142;9.960;2023-07-16T05:47:32;4.18;;;2.25;;
39442;SDS011;25147;52.142;9.960;2023-07-16T05:49:59;4.03;;;2.38;;
39442;SDS011;25147;52.142;9.960;2023-07-16T05:52:26;3.72;;;2.20;;
39442;SDS011;25147;52.142;9.960;2023-07-16T05:54:58;2.80;;;2.13;;
39442;SDS011;25147;52.142;9.960;2023-07-16T05:57:25;4.50;;;2.20;;
39442;SDS011;25147;52.142;9.960;2023-07-16T05:59:52;4.25;;;2.30;;
39442;SDS011;25147;52.142;9.960;2023-07-16T06:02:19;4.15;;;2.40;;
39442;SDS011;25147;52.142;9.960;2023-07-16T06:04:47;4.30;;;2.10;;
39442;SDS011;25147;52.142;9.960;2023-07-16T06:07:14;3.33;;;2.10;;
39442;SDS011;25147;52.142;9.960;2023-07-16T06:09:42;3.38;;;2.50;;
39442;SDS011;25147;52.142;9.960;2023-07-16T06:12:08;3.88;;;2.42;;
39442;SDS011;25147;52.142;9.960;2023-07-16T06:14:35;5.80;;;2.28;;
39442;SDS011;25147;52.142;9.960;2023-07-16T06:17:02;2.88;;;2.20;;
39442;SDS011;25147;52.142;9.960;2023-07-16T06:19:29;3.28;;;2.17;;
39442;SDS011;25147;52.142;9.960;2023-07-16T06:21:57;2.22;;;1.90;;
39442;SDS011;25147;52.142;9.960;2023-07-16T06:24:24;3.05;;;2.30;;
39442;SDS011;25147;52.142;9.960;2023-07-16T06:26:51;5.07;;;2.50;;
39442;SDS011;25147;52.142;9.960;2023-07-16T06:29:18;3.72;;;2.38;;
39442;SDS011;25147;52.142;9.960;2023-07-16T06:31:53;4.60;;;2.10;;
39442;SDS011;25147;52.142;9.960;2023-07-16T06:34:21;3.35;;;2.00;;
39442;SDS011;25147;52.142;9.960;2023-07-16T06:36:48;5.25;;;2.10;;
39442;SDS011;25147;52.142;9.960;2023-07-16T06:39:17;2.40;;;1.83;;
39442;SDS011;25147;52.142;9.960;2023-07-16T06:41:43;3.85;;;2.22;;
39442;SDS011;25147;52.142;9.960;2023-07-16T06:44:10;5.93;;;2.30;;
39442;SDS011;25147;52.142;9.960;2023-07-16T06:46:37;2.63;;;2.03;;
39442;SDS011;25147;52.142;9.960;2023-07-16T06:49:04;2.38;;;1.90;;
39442;SDS011;25147;52.142;9.960;2023-07-16T06:51:32;5.78;;;2.30;;
39442;SDS011;25147;52.142;9.960;2023-07-16T06:53:59;3.95;;;1.83;;
39442;SDS011;25147;52.142;9.960;2023-07-16T06:56:27;4.75;;;1.90;;
39442;SDS011;25147;52.142;9.960;2023-07-16T06:58:57;4.22;;;1.92;;
39442;SDS011;25147;52.142;9.960;2023-07-16T07:01:24;3.83;;;2.38;;
39442;SDS011;25147;52.142;9.960;2023-07-16T07:03:53;3.67;;;2.00;;
39442;SDS011;25147;52.142;9.960;2023-07-16T07:06:19;5.57;;;2.15;;
39442;SDS011;25147;52.142;9.960;2023-07-16T07:08:47;2.05;;;1.85;;
39442;SDS011;25147;52.142;9.960;2023-07-16T07:11:16;3.63;;;1.67;;
39442;SDS011;25147;52.142;9.960;2023-07-16T07:13:46;3.33;;;2.28;;
39442;SDS011;25147;52.142;9.960;2023-07-16T07:16:22;2.55;;;1.83;;
39442;SDS011;25147;52.142;9.960;2023-07-16T07:18:49;2.75;;;2.00;;
39442;SDS011;25147;52.142;9.960;2023-07-16T07:21:16;5.65;;;2.00;;
39442;SDS011;25147;52.142;9.960;2023-07-16T07:23:43;4.45;;;1.90;;
39442;SDS011;25147;52.142;9.960;2023-07-16T07:26:10;4.25;;;1.90;;
39442;SDS011;25147;52.142;9.960;2023-07-16T07:28:39;4.72;;;1.92;;
39442;SDS011;25147;52.142;9.960;2023-07-16T07:31:07;3.72;;;1.67;;
39442;SDS011;25147;52.142;9.960;2023-07-16T07:33:34;4.40;;;2.45;;
39442;SDS011;25147;52.142;9.960;2023-07-16T07:36:02;2.80;;;2.13;;
39442;SDS011;25147;52.142;9.960;2023-07-16T07:38:30;5.60;;;2.13;;
39442;SDS011;25147;52.142;9.960;2023-07-16T07:40:57;3.53;;;1.77;;
39442;SDS011;25147;52.142;9.960;2023-07-16T07:43:34;4.85;;;2.10;;
39442;SDS011;25147;52.142;9.960;2023-07-16T07:46:01;4.13;;;1.85;;
39442;SDS011;25147;52.142;9.960;2023-07-16T07:48:29;4.80;;;2.08;;
39442;SDS011;25147;52.142;9.960;2023-07-16T07:51:00;6.25;;;2.20;;
39442;SDS011;25147;52.142;9.960;2023-07-16T07:53:34;4.60;;;2.00;;
39442;SDS011;25147;52.142;9.960;2023-07-16T07:56:09;4.53;;;2.00;;
39442;SDS011;25147;52.142;9.960;2023-07-16T07:58:36;4.60;;;2.13;;
39442;SDS011;25147;52.142;9.960;2023-07-16T08:01:04;4.75;;;2.35;;
39442;SDS011;25147;52.142;9.960;2023-07-16T08:03:33;5.25;;;2.42;;
39442;SDS011;25147;52.142;9.960;2023-07-16T08:06:00;4.65;;;2.45;;
39442;SDS011;25147;52.142;9.960;2023-07-16T08:08:27;4.57;;;2.22;;
39442;SDS011;25147;52.142;9.960;2023-07-16T08:10:54;3.53;;;2.03;;
39442;SDS011;25147;52.142;9.960;2023-07-16T08:13:34;4.70;;;2.10;;
39442;SDS011;25147;52.142;9.960;2023-07-16T08:16:07;5.50;;;2.40;;
39442;SDS011;25147;52.142;9.960;2023-07-16T08:18:40;4.57;;;2.40;;
39442;SDS011;25147;52.142;9.960;2023-07-16T08:21:07;3.15;;;2.20;;
39442;SDS011;25147;52.142;9.960;2023-07-16T08:23:33;3.83;;;2.13;;
39442;SDS011;25147;52.142;9.960;2023-07-16T08:26:00;3.70;;;2.20;;
39442;SDS011;25147;52.142;9.960;2023-07-16T08:28:27;4.50;;;2.08;;
39442;SDS011;25147;52.142;9.960;2023-07-16T08:30:54;4.28;;;2.05;;
39442;SDS011;25147;52.142;9.960;2023-07-16T08:33:20;3.65;;;2.10;;
39442;SDS011;25147;52.142;9.960;2023-07-16T08:35:49;5.13;;;2.40;;
39442;SDS011;25147;52.142;9.960;2023-07-16T08:38:18;3.72;;;2.47;;
39442;SDS011;25147;52.142;9.960;2023-07-16T08:40:46;5.97;;;2.35;;
39442;SDS011;25147;52.142;9.960;2023-07-16T08:43:13;3.00;;;2.30;;
39442;SDS011;25147;52.142;9.960;2023-07-16T08:45:44;4.82;;;2.10;;
39442;SDS011;25147;52.142;9.960;2023-07-16T08:48:15;2.88;;;2.10;;
39442;SDS011;25147;52.142;9.960;2023-07-16T08:50:43;4.15;;;2.40;;
39442;SDS011;25147;52.142;9.960;2023-07-16T08:53:15;4.60;;;1.95;;
39442;SDS011;25147;52.142;9.960;2023-07-16T08:55:44;2.38;;;1.95;;
39442;SDS011;25147;52.142;9.960;2023-07-16T08:58:11;3.58;;;2.15;;
39442;SDS011;25147;52.142;9.960;2023-07-16T09:00:40;2.85;;;1.98;;
39442;SDS011;25147;52.142;9.960;2023-07-16T09:03:08;4.20;;;1.98;;
39442;SDS011;25147;52.142;9.960;2023-07-16T09:05:43;4.95;;;2.50;;
39442;SDS011;25147;52.142;9.960;2023-07-16T09:08:11;5.70;;;2.10;;
39442;SDS011;25147;52.142;9.960;2023-07-16T09:10:41;3.55;;;2.10;;
39442;SDS011;25147;52.142;9.960;2023-07-16T09:13:18;3.00;;;1.90;;
39442;SDS011;25147;52.142;9.960;2023-07-16T09:15:54;6.53;;;2.30;;
39442;SDS011;25147;52.142;9.960;2023-07-16T09:18:23;4.95;;;2.70;;
39442;SDS011;25147;52.142;9.960;2023-07-16T09:20:54;5.63;;;2.58;;
39442;SDS011;25147;52.142;9.960;2023-07-16T09:23:25;4.18;;;2.05;;
39442;SDS011;25147;52.142;9.960;2023-07-16T09:25:58;5.57;;;2.40;;
39442;SDS011;25147;52.142;9.960;2023-07-16T09:28:25;3.95;;;2.60;;
39442;SDS011;25147;52.142;9.960;2023-07-16T09:30:53;3.75;;;2.30;;
39442;SDS011;25147;52.142;9.960;2023-07-16T09:33:22;6.05;;;2.40;;
39442;SDS011;25147;52.142;9.960;2023-07-16T09:35:51;5.07;;;2.25;;
39442;SDS011;25147;52.142;9.960;2023-07-16T09:38:18;4.03;;;2.20;;
39442;SDS011;25147;52.142;9.960;2023-07-16T09:40:47;4.82;;;2.65;;
39442;SDS011;25147;52.142;9.960;2023-07-16T09:43:18;6.30;;;2.30;;
39442;SDS011;25147;52.142;9.960;2023-07-16T09:45:47;5.47;;;2.50;;
39442;SDS011;25147;52.142;9.960;2023-07-16T09:48:14;3.95;;;2.35;;
39442;SDS011;25147;52.142;9.960;2023-07-16T09:50:51;5.75;;;2.25;;
39442;SDS011;25147;52.142;9.960;2023-07-16T09:53:25;4.22;;;2.42;;
39442;SDS011;25147;52.142;9.960;2023-07-16T09:55:55;3.03;;;2.30;;
39442;SDS011;25147;52.142;9.960;2023-07-16T09:58:26;2.85;;;2.33;;
39442;SDS011;25147;52.142;9.960;2023-07-16T10:00:57;3.88;;;2.20;;
39442;SDS011;25147;52.142;9.960;2023-07-16T10:03:29;3.05;;;2.35;;
39442;SDS011;25147;52.142;9.960;2023-07-16T10:06:05;5.00;;;2.38;;
39442;SDS011;25147;52.142;9.960;2023-07-16T10:08:36;5.55;;;2.22;;
39442;SDS011;25147;52.142;9.960;2023-07-16T10:11:19;4.30;;;1.98;;
39442;SDS011;25147;52.142;9.960;2023-07-16T10:13:54;4.85;;;2.20;;
39442;SDS011;25147;52.142;9.960;2023-07-16T10:16:35;4.15;;;2.42;;
39442;SDS011;25147;52.142;9.960;2023-07-16T10:19:05;5.45;;;2.80;;
39442;SDS011;25147;52.142;9.960;2023-07-16T10:21:36;4.78;;;2.47;;
39442;SDS011;25147;52.142;9.960;2023-07-16T10:24:15;4.43;;;2.28;;
39442;SDS011;25147;52.142;9.960;2023-07-16T10:26:44;3.75;;;2.15;;
39442;SDS011;25147;52.142;9.960;2023-07-16T10:29:21;3.17;;;1.98;;
39442;SDS011;25147;52.142;9.960;2023-07-16T10:31:53;4.65;;;2.08;;
39442;SDS011;25147;52.142;9.960;2023-07-16T10:34:22;2.30;;;2.10;;
39442;SDS011;25147;52.142;9.960;2023-07-16T10:36:52;2.65;;;2.03;;
39442;SDS011;25147;52.142;9.960;2023-07-16T10:39:19;2.67;;;2.03;;
39442;SDS011;25147;52.142;9.960;2023-07-16T10:41:56;3.42;;;2.30;;
39442;SDS011;25147;52.142;9.960;2023-07-16T10:44:28;2.78;;;2.42;;
39442;SDS011;25147;52.142;9.960;2023-07-16T10:46:56;3.38;;;2.40;;
39442;SDS011;25147;52.142;9.960;2023-07-16T10:49:27;3.95;;;2.20;;
39442;SDS011;25147;52.142;9.960;2023-07-16T10:51:57;3.22;;;2.45;;
39442;SDS011;25147;52.142;9.960;2023-07-16T10:54:31;9.07;;;8.18;;
39442;SDS011;25147;52.142;9.960;2023-07-16T10:56:58;9.45;;;7.13;;
39442;SDS011;25147;52.142;9.960;2023-07-16T10:59:25;5.72;;;4.50;;
39442;SDS011;25147;52.142;9.960;2023-07-16T11:01:57;4.10;;;3.58;;
39442;SDS011;25147;52.142;9.960;2023-07-16T11:04:33;3.90;;;3.15;;
39442;SDS011;25147;52.142;9.960;2023-07-16T11:07:09;2.70;;;2.50;;
39442;SDS011;25147;52.142;9.960;2023-07-16T11:09:42;7.82;;;2.50;;
39442;SDS011;25147;52.142;9.960;2023-07-16T11:12:16;3.00;;;2.20;;
39442;SDS011;25147;52.142;9.960;2023-07-16T11:14:51;3.15;;;2.55;;
39442;SDS011;25147;52.142;9.960;2023-07-16T11:17:30;2.97;;;2.15;;
39442;SDS011;25147;52.142;9.960;2023-07-16T11:19:59;4.60;;;2.58;;
39442;SDS011;25147;52.142;9.960;2023-07-16T11:22:38;2.70;;;2.50;;
39442;SDS011;25147;52.142;9.960;2023-07-16T11:25:11;3.72;;;2.55;;
39442;SDS011;25147;52.142;9.960;2023-07-16T11:27:40;3.00;;;2.50;;
39442;SDS011;25147;52.142;9.960;2023-07-16T11:30:09;3.83;;;2.60;;
39442;SDS011;25147;52.142;9.960;2023-07-16T11:32:43;3.88;;;2.58;;
39442;SDS011;25147;52.142;9.960;2023-07-16T11:35:15;4.97;;;3.25;;
39442;SDS011;25147;52.142;9.960;2023-07-16T11:37:43;3.45;;;2.92;;
39442;SDS011;25147;52.142;9.960;2023-07-16T11:40:11;3.78;;;3.00;;
39442;SDS011;25147;52.142;9.960;2023-07-16T11:42:45;4.70;;;3.08;;
39442;SDS011;25147;52.142;9.960;2023-07-16T11:45:16;3.95;;;2.72;;
39442;SDS011;25147;52.142;9.960;2023-07-16T11:47:47;4.10;;;3.08;;
39442;SDS011;25147;52.142;9.960;2023-07-16T11:50:15;4.20;;;2.92;;
39442;SDS011;25147;52.142;9.960;2023-07-16T11:52:51;3.17;;;2.85;;
39442;SDS011;25147;52.142;9.960;2023-07-16T11:55:22;2.92;;;2.70;;
39442;SDS011;25147;52.142;9.960;2023-07-16T11:57:49;3.35;;;2.72;;
39442;SDS011;25147;52.142;9.960;2023-07-16T12:00:22;2.92;;;2.47;;
39442;SDS011;25147;52.142;9.960;2023-07-16T12:02:54;3.47;;;3.17;;
39442;SDS011;25147;52.142;9.960;2023-07-16T12:05:21;4.47;;;3.05;;
39442;SDS011;25147;52.142;9.960;2023-07-16T12:07:51;3.00;;;2.70;;
39442;SDS011;25147;52.142;9.960;2023-07-16T12:10:19;3.97;;;3.00;;
39442;SDS011;25147;52.142;9.960;2023-07-16T12:12:50;3.92;;;3.10;;
39442;SDS011;25147;52.142;9.960;2023-07-16T12:15:19;4.10;;;3.10;;
39442;SDS011;25147;52.142;9.960;2023-07-16T12:17:50;3.05;;;2.75;;
39442;SDS011;25147;52.142;9.960;2023-07-16T12:20:21;5.20;;;2.80;;
39442;SDS011;25147;52.142;9.960;2023-07-16T12:22:58;4.38;;;2.60;;
39442;SDS011;25147;52.142;9.960;2023-07-16T12:25:27;2.63;;;2.42;;
39442;SDS011;25147;52.142;9.960;2023-07-16T12:28:01;3.30;;;2.58;;
39442;SDS011;25147;52.142;9.960;2023-07-16T12:30:38;5.25;;;2.90;;
39442;SDS011;25147;52.142;9.960;2023-07-16T12:33:07;3.28;;;2.92;;
39442;SDS011;25147;52.142;9.960;2023-07-16T12:35:40;2.53;;;2.33;;
39442;SDS011;25147;52.142;9.960;2023-07-16T12:38:07;4.85;;;4.22;;
39442;SDS011;25147;52.142;9.960;2023-07-16T12:40:39;3.63;;;2.92;;
39442;SDS011;25147;52.142;9.960;2023-07-16T12:43:06;3.58;;;3.03;;
39442;SDS011;25147;52.142;9.960;2023-07-16T12:45:35;4.63;;;2.78;;
39442;SDS011;25147;52.142;9.960;2023-07-16T12:48:03;3.25;;;2.58;;
39442;SDS011;25147;52.142;9.960;2023-07-16T12:50:30;3.00;;;2.75;;
39442;SDS011;25147;52.142;9.960;2023-07-16T12:53:02;3.28;;;2.85;;
39442;SDS011;25147;52.142;9.960;2023-07-16T12:55:37;3.53;;;2.78;;
39442;SDS011;25147;52.142;9.960;2023-07-16T12:58:26;3.08;;;2.60;;
39442;SDS011;25147;52.142;9.960;2023-07-16T13:00:55;4.90;;;2.95;;
39442;SDS011;25147;52.142;9.960;2023-07-16T13:03:24;3.38;;;2.75;;
39442;SDS011;25147;52.142;9.960;2023-07-16T13:05:53;3.00;;;2.70;;
39442;SDS011;25147;52.142;9.960;2023-07-16T13:08:22;4.38;;;2.75;;
39442;SDS011;25147;52.142;9.960;2023-07-16T13:10:50;2.58;;;2.38;;
39442;SDS011;25147;52.142;9.960;2023-07-16T13:13:25;3.97;;;2.58;;
39442;SDS011;25147;52.142;9.960;2023-07-16T13:15:54;3.28;;;2.90;;
39442;SDS011;25147;52.142;9.960;2023-07-16T13:18:25;4.40;;;2.78;;
39442;SDS011;25147;52.142;9.960;2023-07-16T13:20:56;4.95;;;2.80;;
39442;SDS011;25147;52.142;9.960;2023-07-16T13:23:24;3.10;;;2.78;;
39442;SDS011;25147;52.142;9.960;2023-07-16T13:25:51;3.08;;;2.60;;
39442;SDS011;25147;52.142;9.960;2023-07-16T13:28:21;3.53;;;2.78;;
39442;SDS011;25147;52.142;9.960;2023-07-16T13:30:55;3.30;;;3.00;;
39442;SDS011;25147;52.142;9.960;2023-07-16T13:33:25;2.72;;;2.03;;
39442;SDS011;25147;52.142;9.960;2023-07-16T13:35:52;4.57;;;2.53;;
39442;SDS011;25147;52.142;9.960;2023-07-16T13:38:20;2.80;;;2.60;;
39442;SDS011;25147;52.142;9.960;2023-07-16T13:40:51;3.08;;;2.28;;
39442;SDS011;25147;52.142;9.960;2023-07-16T13:43:23;6.32;;;2.97;;
39442;SDS011;25147;52.142;9.960;2023-07-16T13:45:54;3.80;;;2.70;;
39442;SDS011;25147;52.142;9.960;2023-07-16T13:48:22;2.60;;;2.40;;
39442;SDS011;25147;52.142;9.960;2023-07-16T13:50:51;4.55;;;2.83;;
39442;SDS011;25147;52.142;9.960;2023-07-16T13:53:18;4.55;;;2.83;;
39442;SDS011;25147;52.142;9.960;2023-07-16T13:55:52;4.97;;;2.85;;
39442;SDS011;25147;52.142;9.960;2023-07-16T13:58:23;3.05;;;2.80;;
39442;SDS011;25147;52.142;9.960;2023-07-16T14:00:53;4.53;;;2.65;;
39442;SDS011;25147;52.142;9.960;2023-07-16T14:03:23;4.38;;;2.65;;
39442;SDS011;25147;52.142;9.960;2023-07-16T14:05:58;3.97;;;3.00;;
39442;SDS011;25147;52.142;9.960;2023-07-16T14:08:31;2.85;;;2.65;;
39442;SDS011;25147;52.142;9.960;2023-07-16T14:11:03;4.20;;;2.90;;
39442;SDS011;25147;52.142;9.960;2023-07-16T14:13:37;4.22;;;2.97;;
39442;SDS011;25147;52.142;9.960;2023-07-16T14:16:05;3.95;;;2.90;;
39442;SDS011;25147;52.142;9.960;2023-07-16T14:18:32;2.80;;;2.60;;
39442;SDS011;25147;52.142;9.960;2023-07-16T14:20:59;3.00;;;2.70;;
39442;SDS011;25147;52.142;9.960;2023-07-16T14:23:28;4.38;;;3.10;;
39442;SDS011;25147;52.142;9.960;2023-07-16T14:25:55;3.58;;;2.97;;
39442;SDS011;25147;52.142;9.960;2023-07-16T14:28:24;3.72;;;2.60;;
39442;SDS011;25147;52.142;9.960;2023-07-16T14:30:52;3.00;;;2.70;;
39442;SDS011;25147;52.142;9.960;2023-07-16T14:33:19;3.20;;;2.90;;
39442;SDS011;25147;52.142;9.960;2023-07-16T14:35:47;2.88;;;2.55;;
39442;SDS011;25147;52.142;9.960;2023-07-16T14:38:18;3.67;;;2.85;;
39442;SDS011;25147;52.142;9.960;2023-07-16T14:40:49;3.03;;;2.83;;
39442;SDS011;25147;52.142;9.960;2023-07-16T14:43:18;3.38;;;3.03;;
39442;SDS011;25147;52.142;9.960;2023-07-16T14:45:47;4.47;;;3.03;;
39442;SDS011;25147;52.142;9.960;2023-07-16T14:48:16;4.10;;;3.13;;
39442;SDS011;25147;52.142;9.960;2023-07-16T14:50:50;4.35;;;2.95;;
39442;SDS011;25147;52.142;9.960;2023-07-16T14:53:17;5.57;;;3.30;;
39442;SDS011;25147;52.142;9.960;2023-07-16T14:55:47;4.15;;;2.92;;
39442;SDS011;25147;52.142;9.960;2023-07-16T14:58:17;3.63;;;2.90;;
39442;SDS011;25147;52.142;9.960;2023-07-16T15:00:49;4.10;;;3.22;;
39442;SDS011;25147;52.142;9.960;2023-07-16T15:03:19;4.70;;;3.30;;
39442;SDS011;25147;52.142;9.960;2023-07-16T15:05:47;5.32;;;3.15;;
39442;SDS011;25147;52.142;9.960;2023-07-16T15:08:14;4.32;;;3.05;;
39442;SDS011;25147;52.142;9.960;2023-07-16T15:10:43;4.03;;;3.25;;
39442;SDS011;25147;52.142;9.960;2023-07-16T15:13:13;5.68;;;3.50;;
39442;SDS011;25147;52.142;9.960;2023-07-16T15:15:40;3.40;;;3.10;;